sensor_id;sensor_type;location;lat;lon;timestamp;temperature;humidity
26641;DHT22;14269;47.358;0.724;2023-08-06T00:02:23;18.0;55.0
26641;DHT22;14269;47.358;0.724;2023-08-06T00:04:54;18.0;55.0
26641;DHT22;14269;47.358;0.724;2023-08-06T00:07:26;18.0;56.0
26641;DHT22;14269;47.358;0.724;2023-08-06T00:09:58;18.0;56.0
26641;DHT22;14269;47.358;0.724;2023-08-06T00:12:29;18.0;56.0
26641;DHT22;14269;47.358;0.724;2023-08-06T00:15:01;18.0;56.0
26641;DHT22;14269;47.358;0.724;2023-08-06T00:17:33;18.0;56.0
26641;DHT22;14269;47.358;0.724;2023-08-06T00:20:06;18.0;56.0
26641;DHT22;14269;47.358;0.724;2023-08-06T00:22:46;18.0;56.0
26641;DHT22;14269;47.358;0.724;2023-08-06T00:25:18;18.0;57.0
26641;DHT22;14269;47.358;0.724;2023-08-06T00:27:49;18.0;57.0
26641;DHT22;14269;47.358;0.724;2023-08-06T00:30:21;18.0;57.0
26641;DHT22;14269;47.358;0.724;2023-08-06T00:32:53;18.0;58.0
26641;DHT22;14269;47.358;0.724;2023-08-06T00:35:24;18.0;58.0
26641;DHT22;14269;47.358;0.724;2023-08-06T00:37:56;18.0;58.0
26641;DHT22;14269;47.358;0.724;2023-08-06T00:40:30;18.0;57.0
26641;DHT22;14269;47.358;0.724;2023-08-06T00:43:09;18.0;57.0
26641;DHT22;14269;47.358;0.724;2023-08-06T00:45:41;18.0;57.0
26641;DHT22;14269;47.358;0.724;2023-08-06T00:48:13;18.0;58.0
26641;DHT22;14269;47.358;0.724;2023-08-06T00:50:45;18.0;57.0
26641;DHT22;14269;47.358;0.724;2023-08-06T00:53:16;18.0;58.0
26641;DHT22;14269;47.358;0.724;2023-08-06T00:55:48;18.0;58.0
26641;DHT22;14269;47.358;0.724;2023-08-06T00:58:19;18.0;58.0
26641;DHT22;14269;47.358;0.724;2023-08-06T01:00:51;18.0;58.0
26641;DHT22;14269;47.358;0.724;2023-08-06T01:03:23;18.0;58.0
26641;DHT22;14269;47.358;0.724;2023-08-06T01:05:55;18.0;58.0
26641;DHT22;14269;47.358;0.724;2023-08-06T01:08:32;18.0;58.0
26641;DHT22;14269;47.358;0.724;2023-08-06T01:11:17;18.0;58.0
26641;DHT22;14269;47.358;0.724;2023-08-06T01:13:54;18.0;58.0
26641;DHT22;14269;47.358;0.724;2023-08-06T01:16:33;18.0;58.0
26641;DHT22;14269;47.358;0.724;2023-08-06T01:19:17;18.0;58.0
26641;DHT22;14269;47.358;0.724;2023-08-06T01:21:55;18.0;59.0
26641;DHT22;14269;47.358;0.724;2023-08-06T01:24:26;18.0;59.0
26641;DHT22;14269;47.358;0.724;2023-08-06T01:27:03;18.0;59.0
26641;DHT22;14269;47.358;0.724;2023-08-06T01:29:44;18.0;59.0
26641;DHT22;14269;47.358;0.724;2023-08-06T01:32:23;18.0;59.0
26641;DHT22;14269;47.358;0.724;2023-08-06T01:35:04;18.0;59.0
26641;DHT22;14269;47.358;0.724;2023-08-06T01:37:35;18.0;60.0
26641;DHT22;14269;47.358;0.724;2023-08-06T01:40:10;18.0;60.0
26641;DHT22;14269;47.358;0.724;2023-08-06T01:42:48;18.0;60.0
26641;DHT22;14269;47.358;0.724;2023-08-06T01:45:20;18.0;60.0
26641;DHT22;14269;47.358;0.724;2023-08-06T01:47:52;18.0;60.0
26641;DHT22;14269;47.358;0.724;2023-08-06T01:50:23;18.0;60.0
26641;DHT22;14269;47.358;0.724;2023-08-06T01:52:55;18.0;60.0
26641;DHT22;14269;47.358;0.724;2023-08-06T01:55:26;18.0;61.0
26641;DHT22;14269;47.358;0.724;2023-08-06T01:58:08;17.0;61.0
26641;DHT22;14269;47.358;0.724;2023-08-06T02:00:40;17.0;61.0
26641;DHT22;14269;47.358;0.724;2023-08-06T02:03:12;17.0;61.0
26641;DHT22;14269;47.358;0.724;2023-08-06T02:05:43;17.0;61.0
26641;DHT22;14269;47.358;0.724;2023-08-06T02:08:15;17.0;61.0
26641;DHT22;14269;47.358;0.724;2023-08-06T02:10:46;17.0;61.0
26641;DHT22;14269;47.358;0.724;2023-08-06T02:13:18;17.0;62.0
26641;DHT22;14269;47.358;0.724;2023-08-06T02:15:50;17.0;62.0
26641;DHT22;14269;47.358;0.724;2023-08-06T02:18:21;17.0;62.0
26641;DHT22;14269;47.358;0.724;2023-08-06T02:20:57;17.0;62.0
26641;DHT22;14269;47.358;0.724;2023-08-06T02:23:35;17.0;62.0
26641;DHT22;14269;47.358;0.724;2023-08-06T02:26:06;17.0;62.0
26641;DHT22;14269;47.358;0.724;2023-08-06T02:28:38;17.0;62.0
26641;DHT22;14269;47.358;0.724;2023-08-06T02:31:10;17.0;62.0
26641;DHT22;14269;47.358;0.724;2023-08-06T02:33:41;17.0;62.0
26641;DHT22;14269;47.358;0.724;2023-08-06T02:36:13;17.0;62.0
26641;DHT22;14269;47.358;0.724;2023-08-06T02:38:45;17.0;62.0
26641;DHT22;14269;47.358;0.724;2023-08-06T02:41:16;17.0;62.0
26641;DHT22;14269;47.358;0.724;2023-08-06T02:43:48;17.0;62.0
26641;DHT22;14269;47.358;0.724;2023-08-06T02:46:20;17.0;63.0
26641;DHT22;14269;47.358;0.724;2023-08-06T02:48:51;17.0;63.0
26641;DHT22;14269;47.358;0.724;2023-08-06T02:51:23;17.0;63.0
26641;DHT22;14269;47.358;0.724;2023-08-06T02:53:55;17.0;63.0
26641;DHT22;14269;47.358;0.724;2023-08-06T02:56:26;17.0;63.0
26641;DHT22;14269;47.358;0.724;2023-08-06T02:58:58;17.0;63.0
26641;DHT22;14269;47.358;0.724;2023-08-06T03:01:29;17.0;63.0
26641;DHT22;14269;47.358;0.724;2023-08-06T03:04:01;17.0;63.0
26641;DHT22;14269;47.358;0.724;2023-08-06T03:06:33;17.0;63.0
26641;DHT22;14269;47.358;0.724;2023-08-06T03:09:04;17.0;63.0
26641;DHT22;14269;47.358;0.724;2023-08-06T03:11:36;17.0;63.0
26641;DHT22;14269;47.358;0.724;2023-08-06T03:14:08;17.0;63.0
26641;DHT22;14269;47.358;0.724;2023-08-06T03:16:39;17.0;63.0
26641;DHT22;14269;47.358;0.724;2023-08-06T03:19:11;17.0;63.0
26641;DHT22;14269;47.358;0.724;2023-08-06T03:21:43;17.0;64.0
26641;DHT22;14269;47.358;0.724;2023-08-06T03:24:14;17.0;64.0
26641;DHT22;14269;47.358;0.724;2023-08-06T03:26:46;17.0;64.0
26641;DHT22;14269;47.358;0.724;2023-08-06T03:29:18;17.0;64.0
26641;DHT22;14269;47.358;0.724;2023-08-06T03:31:49;17.0;64.0
26641;DHT22;14269;47.358;0.724;2023-08-06T03:34:21;17.0;63.0
26641;DHT22;14269;47.358;0.724;2023-08-06T03:36:53;17.0;63.0
26641;DHT22;14269;47.358;0.724;2023-08-06T03:39:24;17.0;64.0
26641;DHT22;14269;47.358;0.724;2023-08-06T03:41:56;17.0;64.0
26641;DHT22;14269;47.358;0.724;2023-08-06T03:44:28;17.0;64.0
26641;DHT22;14269;47.358;0.724;2023-08-06T03:46:59;17.0;64.0
26641;DHT22;14269;47.358;0.724;2023-08-06T03:49:31;17.0;64.0
26641;DHT22;14269;47.358;0.724;2023-08-06T03:52:03;17.0;64.0
26641;DHT22;14269;47.358;0.724;2023-08-06T03:54:34;17.0;64.0
26641;DHT22;14269;47.358;0.724;2023-08-06T03:57:06;17.0;64.0
26641;DHT22;14269;47.358;0.724;2023-08-06T03:59:37;17.0;64.0
26641;DHT22;14269;47.358;0.724;2023-08-06T04:02:09;17.0;64.0
26641;DHT22;14269;47.358;0.724;2023-08-06T04:04:41;17.0;64.0
26641;DHT22;14269;47.358;0.724;2023-08-06T04:07:12;17.0;65.0
26641;DHT22;14269;47.358;0.724;2023-08-06T04:09:53;17.0;65.0
26641;DHT22;14269;47.358;0.724;2023-08-06T04:12:26;17.0;65.0
26641;DHT22;14269;47.358;0.724;2023-08-06T04:14:58;17.0;65.0
26641;DHT22;14269;47.358;0.724;2023-08-06T04:17:29;17.0;65.0
26641;DHT22;14269;47.358;0.724;2023-08-06T04:20:02;17.0;65.0
26641;DHT22;14269;47.358;0.724;2023-08-06T04:22:42;17.0;65.0
26641;DHT22;14269;47.358;0.724;2023-08-06T04:25:14;17.0;65.0
26641;DHT22;14269;47.358;0.724;2023-08-06T04:27:56;17.0;65.0
26641;DHT22;14269;47.358;0.724;2023-08-06T04:30:28;17.0;65.0
26641;DHT22;14269;47.358;0.724;2023-08-06T04:32:59;17.0;66.0
26641;DHT22;14269;47.358;0.724;2023-08-06T04:35:31;17.0;65.0
26641;DHT22;14269;47.358;0.724;2023-08-06T04:38:02;17.0;66.0
26641;DHT22;14269;47.358;0.724;2023-08-06T04:40:34;17.0;66.0
26641;DHT22;14269;47.358;0.724;2023-08-06T04:43:06;17.0;65.0
26641;DHT22;14269;47.358;0.724;2023-08-06T04:45:37;17.0;65.0
26641;DHT22;14269;47.358;0.724;2023-08-06T04:48:09;16.0;66.0
26641;DHT22;14269;47.358;0.724;2023-08-06T04:50:43;16.0;66.0
26641;DHT22;14269;47.358;0.724;2023-08-06T04:53:22;16.0;67.0
26641;DHT22;14269;47.358;0.724;2023-08-06T04:55:54;16.0;67.0
26641;DHT22;14269;47.358;0.724;2023-08-06T04:58:26;16.0;67.0
26641;DHT22;14269;47.358;0.724;2023-08-06T05:00:57;16.0;67.0
26641;DHT22;14269;47.358;0.724;2023-08-06T05:03:29;16.0;67.0
26641;DHT22;14269;47.358;0.724;2023-08-06T05:06:01;16.0;67.0
26641;DHT22;14269;47.358;0.724;2023-08-06T05:08:32;16.0;67.0
26641;DHT22;14269;47.358;0.724;2023-08-06T05:11:04;16.0;67.0
26641;DHT22;14269;47.358;0.724;2023-08-06T05:13:36;16.0;67.0
26641;DHT22;14269;47.358;0.724;2023-08-06T05:16:07;16.0;67.0
26641;DHT22;14269;47.358;0.724;2023-08-06T05:18:39;16.0;67.0
26641;DHT22;14269;47.358;0.724;2023-08-06T05:21:21;16.0;67.0
26641;DHT22;14269;47.358;0.724;2023-08-06T05:23:52;16.0;67.0
26641;DHT22;14269;47.358;0.724;2023-08-06T05:26:24;16.0;67.0
26641;DHT22;14269;47.358;0.724;2023-08-06T05:28:56;16.0;66.0
26641;DHT22;14269;47.358;0.724;2023-08-06T05:31:28;16.0;67.0
26641;DHT22;14269;47.358;0.724;2023-08-06T05:34:09;16.0;66.0
26641;DHT22;14269;47.358;0.724;2023-08-06T05:36:41;16.0;67.0
26641;DHT22;14269;47.358;0.724;2023-08-06T05:39:12;16.0;66.0
26641;DHT22;14269;47.358;0.724;2023-08-06T05:41:44;17.0;66.0
26641;DHT22;14269;47.358;0.724;2023-08-06T05:44:16;17.0;67.0
26641;DHT22;14269;47.358;0.724;2023-08-06T05:46:48;17.0;67.0
26641;DHT22;14269;47.358;0.724;2023-08-06T05:49:29;17.0;66.0
26641;DHT22;14269;47.358;0.724;2023-08-06T05:52:01;17.0;66.0
26641;DHT22;14269;47.358;0.724;2023-08-06T05:54:42;17.0;66.0
26641;DHT22;14269;47.358;0.724;2023-08-06T05:57:14;17.0;65.0
26641;DHT22;14269;47.358;0.724;2023-08-06T05:59:46;17.0;65.0
26641;DHT22;14269;47.358;0.724;2023-08-06T06:02:19;17.0;64.0
26641;DHT22;14269;47.358;0.724;2023-08-06T06:04:59;17.0;65.0
26641;DHT22;14269;47.358;0.724;2023-08-06T06:07:31;17.0;65.0
26641;DHT22;14269;47.358;0.724;2023-08-06T06:10:03;17.0;65.0
26641;DHT22;14269;47.358;0.724;2023-08-06T06:12:34;17.0;65.0
26641;DHT22;14269;47.358;0.724;2023-08-06T06:15:06;17.0;65.0
26641;DHT22;14269;47.358;0.724;2023-08-06T06:17:37;17.0;65.0
26641;DHT22;14269;47.358;0.724;2023-08-06T06:20:09;17.0;65.0
26641;DHT22;14269;47.358;0.724;2023-08-06T06:22:41;17.0;64.0
26641;DHT22;14269;47.358;0.724;2023-08-06T06:25:12;17.0;64.0
26641;DHT22;14269;47.358;0.724;2023-08-06T06:27:44;17.0;63.0
26641;DHT22;14269;47.358;0.724;2023-08-06T06:30:16;17.0;64.0
26641;DHT22;14269;47.358;0.724;2023-08-06T06:32:47;18.0;64.0
26641;DHT22;14269;47.358;0.724;2023-08-06T06:35:19;18.0;63.0
26641;DHT22;14269;47.358;0.724;2023-08-06T06:37:50;18.0;62.0
26641;DHT22;14269;47.358;0.724;2023-08-06T06:40:22;18.0;62.0
26641;DHT22;14269;47.358;0.724;2023-08-06T06:42:54;18.0;62.0
26641;DHT22;14269;47.358;0.724;2023-08-06T06:45:25;18.0;62.0
26641;DHT22;14269;47.358;0.724;2023-08-06T06:47:57;19.0;61.0
26641;DHT22;14269;47.358;0.724;2023-08-06T06:50:29;19.0;61.0
26641;DHT22;14269;47.358;0.724;2023-08-06T06:53:00;19.0;61.0
26641;DHT22;14269;47.358;0.724;2023-08-06T06:55:32;19.0;61.0
26641;DHT22;14269;47.358;0.724;2023-08-06T06:58:04;19.0;60.0
26641;DHT22;14269;47.358;0.724;2023-08-06T07:00:36;19.0;60.0
26641;DHT22;14269;47.358;0.724;2023-08-06T07:03:07;19.0;60.0
26641;DHT22;14269;47.358;0.724;2023-08-06T07:05:39;20.0;59.0
26641;DHT22;14269;47.358;0.724;2023-08-06T07:08:10;19.0;60.0
26641;DHT22;14269;47.358;0.724;2023-08-06T07:10:42;19.0;60.0
26641;DHT22;14269;47.358;0.724;2023-08-06T07:13:14;19.0;60.0
26641;DHT22;14269;47.358;0.724;2023-08-06T07:15:45;19.0;60.0
26641;DHT22;14269;47.358;0.724;2023-08-06T07:18:17;19.0;59.0
26641;DHT22;14269;47.358;0.724;2023-08-06T07:20:49;20.0;60.0
26641;DHT22;14269;47.358;0.724;2023-08-06T07:23:21;20.0;58.0
26641;DHT22;14269;47.358;0.724;2023-08-06T07:25:52;20.0;59.0
26641;DHT22;14269;47.358;0.724;2023-08-06T07:28:23;20.0;58.0
26641;DHT22;14269;47.358;0.724;2023-08-06T07:30:55;21.0;57.0
26641;DHT22;14269;47.358;0.724;2023-08-06T07:33:27;21.0;56.0
26641;DHT22;14269;47.358;0.724;2023-08-06T07:35:58;21.0;55.0
26641;DHT22;14269;47.358;0.724;2023-08-06T07:38:30;20.0;56.0
26641;DHT22;14269;47.358;0.724;2023-08-06T07:41:02;20.0;58.0
26641;DHT22;14269;47.358;0.724;2023-08-06T07:43:33;20.0;56.0
26641;DHT22;14269;47.358;0.724;2023-08-06T07:46:15;20.0;57.0
26641;DHT22;14269;47.358;0.724;2023-08-06T07:48:47;19.0;59.0
26641;DHT22;14269;47.358;0.724;2023-08-06T07:51:18;20.0;58.0
26641;DHT22;14269;47.358;0.724;2023-08-06T07:53:50;20.0;57.0
26641;DHT22;14269;47.358;0.724;2023-08-06T07:56:22;20.0;57.0
26641;DHT22;14269;47.358;0.724;2023-08-06T07:58:53;20.0;58.0
26641;DHT22;14269;47.358;0.724;2023-08-06T08:01:25;20.0;57.0
26641;DHT22;14269;47.358;0.724;2023-08-06T08:03:56;21.0;55.0
26641;DHT22;14269;47.358;0.724;2023-08-06T08:06:28;21.0;54.0
26641;DHT22;14269;47.358;0.724;2023-08-06T08:09:00;21.0;55.0
26641;DHT22;14269;47.358;0.724;2023-08-06T08:11:31;21.0;55.0
26641;DHT22;14269;47.358;0.724;2023-08-06T08:14:03;21.0;55.0
26641;DHT22;14269;47.358;0.724;2023-08-06T08:16:35;22.0;53.0
26641;DHT22;14269;47.358;0.724;2023-08-06T08:19:06;21.0;53.0
26641;DHT22;14269;47.358;0.724;2023-08-06T08:21:38;21.0;53.0
26641;DHT22;14269;47.358;0.724;2023-08-06T08:24:10;22.0;52.0
26641;DHT22;14269;47.358;0.724;2023-08-06T08:26:41;21.0;52.0
26641;DHT22;14269;47.358;0.724;2023-08-06T08:29:13;21.0;53.0
26641;DHT22;14269;47.358;0.724;2023-08-06T08:31:45;22.0;52.0
26641;DHT22;14269;47.358;0.724;2023-08-06T08:34:16;22.0;52.0
26641;DHT22;14269;47.358;0.724;2023-08-06T08:36:49;22.0;50.0
26641;DHT22;14269;47.358;0.724;2023-08-06T08:39:30;22.0;49.0
26641;DHT22;14269;47.358;0.724;2023-08-06T08:42:03;22.0;50.0
26641;DHT22;14269;47.358;0.724;2023-08-06T08:44:43;22.0;50.0
26641;DHT22;14269;47.358;0.724;2023-08-06T08:47:16;21.0;50.0
26641;DHT22;14269;47.358;0.724;2023-08-06T08:49:57;21.0;50.0
26641;DHT22;14269;47.358;0.724;2023-08-06T08:52:30;21.0;50.0
26641;DHT22;14269;47.358;0.724;2023-08-06T08:55:10;22.0;51.0
26641;DHT22;14269;47.358;0.724;2023-08-06T08:57:42;23.0;50.0
26641;DHT22;14269;47.358;0.724;2023-08-06T09:00:14;23.0;47.0
26641;DHT22;14269;47.358;0.724;2023-08-06T09:02:46;23.0;46.0
26641;DHT22;14269;47.358;0.724;2023-08-06T09:05:28;23.0;47.0
26641;DHT22;14269;47.358;0.724;2023-08-06T09:08:11;22.0;47.0
26641;DHT22;14269;47.358;0.724;2023-08-06T09:10:52;23.0;46.0
26641;DHT22;14269;47.358;0.724;2023-08-06T09:13:32;23.0;45.0
26641;DHT22;14269;47.358;0.724;2023-08-06T09:16:04;23.0;45.0
26641;DHT22;14269;47.358;0.724;2023-08-06T09:18:39;24.0;46.0
26641;DHT22;14269;47.358;0.724;2023-08-06T09:21:17;24.0;44.0
26641;DHT22;14269;47.358;0.724;2023-08-06T09:23:49;23.0;44.0
26641;DHT22;14269;47.358;0.724;2023-08-06T09:26:20;22.0;45.0
26641;DHT22;14269;47.358;0.724;2023-08-06T09:28:52;22.0;46.0
26641;DHT22;14269;47.358;0.724;2023-08-06T09:31:23;22.0;46.0
26641;DHT22;14269;47.358;0.724;2023-08-06T09:33:55;23.0;44.0
26641;DHT22;14269;47.358;0.724;2023-08-06T09:36:40;24.0;46.0
26641;DHT22;14269;47.358;0.724;2023-08-06T09:39:20;23.0;45.0
26641;DHT22;14269;47.358;0.724;2023-08-06T09:42:02;22.0;44.0
26641;DHT22;14269;47.358;0.724;2023-08-06T09:44:42;22.0;44.0
26641;DHT22;14269;47.358;0.724;2023-08-06T09:47:17;22.0;45.0
26641;DHT22;14269;47.358;0.724;2023-08-06T09:49:56;21.0;47.0
26641;DHT22;14269;47.358;0.724;2023-08-06T09:52:27;21.0;47.0
26641;DHT22;14269;47.358;0.724;2023-08-06T09:54:59;21.0;49.0
26641;DHT22;14269;47.358;0.724;2023-08-06T09:57:31;22.0;47.0
26641;DHT22;14269;47.358;0.724;2023-08-06T10:00:03;22.0;46.0
26641;DHT22;14269;47.358;0.724;2023-08-06T10:02:45;23.0;45.0
26641;DHT22;14269;47.358;0.724;2023-08-06T10:05:26;23.0;45.0
26641;DHT22;14269;47.358;0.724;2023-08-06T10:08:07;23.0;45.0
26641;DHT22;14269;47.358;0.724;2023-08-06T10:10:39;23.0;44.0
26641;DHT22;14269;47.358;0.724;2023-08-06T10:13:11;23.0;45.0
26641;DHT22;14269;47.358;0.724;2023-08-06T10:15:53;23.0;44.0
26641;DHT22;14269;47.358;0.724;2023-08-06T10:18:25;22.0;45.0
26641;DHT22;14269;47.358;0.724;2023-08-06T10:21:07;23.0;44.0
26641;DHT22;14269;47.358;0.724;2023-08-06T10:23:53;23.0;43.0
26641;DHT22;14269;47.358;0.724;2023-08-06T10:26:30;22.0;43.0
26641;DHT22;14269;47.358;0.724;2023-08-06T10:29:01;22.0;45.0
26641;DHT22;14269;47.358;0.724;2023-08-06T10:32:05;22.0;45.0
26641;DHT22;14269;47.358;0.724;2023-08-06T10:35:01;22.0;46.0
26641;DHT22;14269;47.358;0.724;2023-08-06T10:37:37;22.0;45.0
26641;DHT22;14269;47.358;0.724;2023-08-06T10:40:09;22.0;45.0
26641;DHT22;14269;47.358;0.724;2023-08-06T10:42:40;22.0;45.0
26641;DHT22;14269;47.358;0.724;2023-08-06T10:45:14;23.0;44.0
26641;DHT22;14269;47.358;0.724;2023-08-06T10:47:53;24.0;43.0
26641;DHT22;14269;47.358;0.724;2023-08-06T10:50:26;25.0;42.0
26641;DHT22;14269;47.358;0.724;2023-08-06T10:52:57;25.0;41.0
26641;DHT22;14269;47.358;0.724;2023-08-06T10:55:29;25.0;42.0
26641;DHT22;14269;47.358;0.724;2023-08-06T10:58:15;25.0;41.0
26641;DHT22;14269;47.358;0.724;2023-08-06T11:00:52;26.0;40.0
26641;DHT22;14269;47.358;0.724;2023-08-06T11:03:23;25.0;40.0
26641;DHT22;14269;47.358;0.724;2023-08-06T11:05:55;24.0;40.0
26641;DHT22;14269;47.358;0.724;2023-08-06T11:08:28;23.0;42.0
26641;DHT22;14269;47.358;0.724;2023-08-06T11:11:11;24.0;43.0
26641;DHT22;14269;47.358;0.724;2023-08-06T11:13:51;25.0;42.0
26641;DHT22;14269;47.358;0.724;2023-08-06T11:16:23;25.0;41.0
26641;DHT22;14269;47.358;0.724;2023-08-06T11:19:04;24.0;42.0
26641;DHT22;14269;47.358;0.724;2023-08-06T11:21:35;24.0;42.0
26641;DHT22;14269;47.358;0.724;2023-08-06T11:24:07;24.0;43.0
26641;DHT22;14269;47.358;0.724;2023-08-06T11:26:40;25.0;43.0
26641;DHT22;14269;47.358;0.724;2023-08-06T11:29:22;25.0;42.0
26641;DHT22;14269;47.358;0.724;2023-08-06T11:32:03;25.0;41.0
26641;DHT22;14269;47.358;0.724;2023-08-06T11:34:44;26.0;41.0
26641;DHT22;14269;47.358;0.724;2023-08-06T11:37:16;26.0;38.0
26641;DHT22;14269;47.358;0.724;2023-08-06T11:39:48;27.0;38.0
26641;DHT22;14269;47.358;0.724;2023-08-06T11:42:19;26.0;38.0
26641;DHT22;14269;47.358;0.724;2023-08-06T11:44:50;26.0;37.0
26641;DHT22;14269;47.358;0.724;2023-08-06T11:47:22;27.0;37.0
26641;DHT22;14269;47.358;0.724;2023-08-06T11:49:54;26.0;37.0
26641;DHT22;14269;47.358;0.724;2023-08-06T11:52:26;25.0;39.0
26641;DHT22;14269;47.358;0.724;2023-08-06T11:55:01;24.0;41.0
26641;DHT22;14269;47.358;0.724;2023-08-06T11:57:42;24.0;41.0
26641;DHT22;14269;47.358;0.724;2023-08-06T12:00:23;23.0;43.0
26641;DHT22;14269;47.358;0.724;2023-08-06T12:03:05;23.0;44.0
26641;DHT22;14269;47.358;0.724;2023-08-06T12:05:45;23.0;43.0
26641;DHT22;14269;47.358;0.724;2023-08-06T12:08:26;23.0;43.0
26641;DHT22;14269;47.358;0.724;2023-08-06T12:10:57;23.0;43.0
26641;DHT22;14269;47.358;0.724;2023-08-06T12:13:29;23.0;44.0
26641;DHT22;14269;47.358;0.724;2023-08-06T12:16:01;23.0;44.0
26641;DHT22;14269;47.358;0.724;2023-08-06T12:18:33;24.0;43.0
26641;DHT22;14269;47.358;0.724;2023-08-06T12:21:04;25.0;41.0
26641;DHT22;14269;47.358;0.724;2023-08-06T12:23:36;25.0;40.0
26641;DHT22;14269;47.358;0.724;2023-08-06T12:26:07;25.0;40.0
26641;DHT22;14269;47.358;0.724;2023-08-06T12:28:39;24.0;40.0
26641;DHT22;14269;47.358;0.724;2023-08-06T12:31:11;24.0;41.0
26641;DHT22;14269;47.358;0.724;2023-08-06T12:33:42;24.0;42.0
26641;DHT22;14269;47.358;0.724;2023-08-06T12:36:14;24.0;42.0
26641;DHT22;14269;47.358;0.724;2023-08-06T12:38:46;25.0;39.0
26641;DHT22;14269;47.358;0.724;2023-08-06T12:41:17;25.0;39.0
26641;DHT22;14269;47.358;0.724;2023-08-06T12:43:49;24.0;40.0
26641;DHT22;14269;47.358;0.724;2023-08-06T12:46:20;24.0;41.0
26641;DHT22;14269;47.358;0.724;2023-08-06T12:48:52;24.0;41.0
26641;DHT22;14269;47.358;0.724;2023-08-06T12:51:25;24.0;41.0
26641;DHT22;14269;47.358;0.724;2023-08-06T12:53:55;24.0;41.0
26641;DHT22;14269;47.358;0.724;2023-08-06T12:56:27;25.0;40.0
26641;DHT22;14269;47.358;0.724;2023-08-06T12:59:09;24.0;40.0
26641;DHT22;14269;47.358;0.724;2023-08-06T13:01:41;25.0;40.0
26641;DHT22;14269;47.358;0.724;2023-08-06T13:04:13;25.0;40.0
26641;DHT22;14269;47.358;0.724;2023-08-06T13:06:54;26.0;40.0
26641;DHT22;14269;47.358;0.724;2023-08-06T13:09:26;26.0;38.0
26641;DHT22;14269;47.358;0.724;2023-08-06T13:12:07;25.0;40.0
26641;DHT22;14269;47.358;0.724;2023-08-06T13:14:39;25.0;40.0
26641;DHT22;14269;47.358;0.724;2023-08-06T13:17:11;26.0;39.0
26641;DHT22;14269;47.358;0.724;2023-08-06T13:19:42;26.0;38.0
26641;DHT22;14269;47.358;0.724;2023-08-06T13:22:14;26.0;37.0
26641;DHT22;14269;47.358;0.724;2023-08-06T13:24:46;26.0;38.0
26641;DHT22;14269;47.358;0.724;2023-08-06T13:27:17;26.0;36.0
26641;DHT22;14269;47.358;0.724;2023-08-06T13:29:49;26.0;37.0
26641;DHT22;14269;47.358;0.724;2023-08-06T13:32:21;26.0;38.0
26641;DHT22;14269;47.358;0.724;2023-08-06T13:34:52;25.0;38.0
26641;DHT22;14269;47.358;0.724;2023-08-06T13:37:24;25.0;39.0
26641;DHT22;14269;47.358;0.724;2023-08-06T13:39:55;24.0;39.0
26641;DHT22;14269;47.358;0.724;2023-08-06T13:42:27;24.0;40.0
26641;DHT22;14269;47.358;0.724;2023-08-06T13:45:10;24.0;39.0
26641;DHT22;14269;47.358;0.724;2023-08-06T13:47:51;24.0;39.0
26641;DHT22;14269;47.358;0.724;2023-08-06T13:50:25;24.0;40.0
26641;DHT22;14269;47.358;0.724;2023-08-06T13:53:04;24.0;40.0
26641;DHT22;14269;47.358;0.724;2023-08-06T13:55:36;24.0;40.0
26641;DHT22;14269;47.358;0.724;2023-08-06T13:58:08;24.0;40.0
26641;DHT22;14269;47.358;0.724;2023-08-06T14:00:39;23.0;40.0
26641;DHT22;14269;47.358;0.724;2023-08-06T14:03:11;24.0;41.0
26641;DHT22;14269;47.358;0.724;2023-08-06T14:05:42;24.0;41.0
26641;DHT22;14269;47.358;0.724;2023-08-06T14:08:14;24.0;40.0
26641;DHT22;14269;47.358;0.724;2023-08-06T14:10:46;23.0;39.0
26641;DHT22;14269;47.358;0.724;2023-08-06T14:13:18;23.0;42.0
26641;DHT22;14269;47.358;0.724;2023-08-06T14:15:49;23.0;42.0
26641;DHT22;14269;47.358;0.724;2023-08-06T14:18:20;23.0;41.0
26641;DHT22;14269;47.358;0.724;2023-08-06T14:20:52;23.0;41.0
26641;DHT22;14269;47.358;0.724;2023-08-06T14:23:24;23.0;41.0
26641;DHT22;14269;47.358;0.724;2023-08-06T14:25:55;23.0;42.0
26641;DHT22;14269;47.358;0.724;2023-08-06T14:28:27;23.0;42.0
26641;DHT22;14269;47.358;0.724;2023-08-06T14:30:59;23.0;42.0
26641;DHT22;14269;47.358;0.724;2023-08-06T14:33:30;23.0;43.0
26641;DHT22;14269;47.358;0.724;2023-08-06T14:36:02;23.0;43.0
26641;DHT22;14269;47.358;0.724;2023-08-06T14:38:34;23.0;43.0
26641;DHT22;14269;47.358;0.724;2023-08-06T14:41:06;23.0;44.0
26641;DHT22;14269;47.358;0.724;2023-08-06T14:43:37;23.0;44.0
26641;DHT22;14269;47.358;0.724;2023-08-06T14:46:08;23.0;44.0
26641;DHT22;14269;47.358;0.724;2023-08-06T14:48:40;22.0;44.0
26641;DHT22;14269;47.358;0.724;2023-08-06T14:51:23;22.0;45.0
26641;DHT22;14269;47.358;0.724;2023-08-06T14:53:54;22.0;47.0
26641;DHT22;14269;47.358;0.724;2023-08-06T14:56:25;22.0;49.0
26641;DHT22;14269;47.358;0.724;2023-08-06T14:58:57;22.0;51.0
26641;DHT22;14269;47.358;0.724;2023-08-06T15:01:29;22.0;51.0
26641;DHT22;14269;47.358;0.724;2023-08-06T15:04:00;23.0;51.0
26641;DHT22;14269;47.358;0.724;2023-08-06T15:06:32;24.0;50.0
26641;DHT22;14269;47.358;0.724;2023-08-06T15:09:03;24.0;47.0
26641;DHT22;14269;47.358;0.724;2023-08-06T15:11:35;24.0;46.0
26641;DHT22;14269;47.358;0.724;2023-08-06T15:14:07;24.0;45.0
26641;DHT22;14269;47.358;0.724;2023-08-06T15:16:38;24.0;44.0
26641;DHT22;14269;47.358;0.724;2023-08-06T15:19:10;24.0;43.0
26641;DHT22;14269;47.358;0.724;2023-08-06T15:21:43;24.0;44.0
26641;DHT22;14269;47.358;0.724;2023-08-06T15:24:23;25.0;42.0
26641;DHT22;14269;47.358;0.724;2023-08-06T15:26:55;24.0;40.0
26641;DHT22;14269;47.358;0.724;2023-08-06T15:29:27;24.0;41.0
26641;DHT22;14269;47.358;0.724;2023-08-06T15:31:58;24.0;41.0
26641;DHT22;14269;47.358;0.724;2023-08-06T15:34:30;24.0;41.0
26641;DHT22;14269;47.358;0.724;2023-08-06T15:37:03;23.0;42.0
26641;DHT22;14269;47.358;0.724;2023-08-06T15:39:43;23.0;42.0
26641;DHT22;14269;47.358;0.724;2023-08-06T15:42:15;23.0;44.0
26641;DHT22;14269;47.358;0.724;2023-08-06T15:44:47;23.0;43.0
26641;DHT22;14269;47.358;0.724;2023-08-06T15:47:18;23.0;43.0
26641;DHT22;14269;47.358;0.724;2023-08-06T15:49:50;23.0;42.0
26641;DHT22;14269;47.358;0.724;2023-08-06T15:52:22;23.0;43.0
26641;DHT22;14269;47.358;0.724;2023-08-06T15:54:53;23.0;43.0
26641;DHT22;14269;47.358;0.724;2023-08-06T15:57:25;23.0;42.0
26641;DHT22;14269;47.358;0.724;2023-08-06T15:59:57;24.0;42.0
26641;DHT22;14269;47.358;0.724;2023-08-06T16:02:28;24.0;41.0
26641;DHT22;14269;47.358;0.724;2023-08-06T16:05:00;24.0;41.0
26641;DHT22;14269;47.358;0.724;2023-08-06T16:07:32;24.0;41.0
26641;DHT22;14269;47.358;0.724;2023-08-06T16:10:13;24.0;41.0
26641;DHT22;14269;47.358;0.724;2023-08-06T16:12:45;23.0;42.0
26641;DHT22;14269;47.358;0.724;2023-08-06T16:15:19;23.0;42.0
26641;DHT22;14269;47.358;0.724;2023-08-06T16:17:58;23.0;42.0
26641;DHT22;14269;47.358;0.724;2023-08-06T16:20:30;23.0;42.0
26641;DHT22;14269;47.358;0.724;2023-08-06T16:23:03;23.0;42.0
26641;DHT22;14269;47.358;0.724;2023-08-06T16:25:47;23.0;43.0
26641;DHT22;14269;47.358;0.724;2023-08-06T16:28:28;23.0;42.0
26641;DHT22;14269;47.358;0.724;2023-08-06T16:31:10;23.0;43.0
26641;DHT22;14269;47.358;0.724;2023-08-06T16:33:49;23.0;42.0
26641;DHT22;14269;47.358;0.724;2023-08-06T16:36:20;23.0;43.0
26641;DHT22;14269;47.358;0.724;2023-08-06T16:38:52;23.0;42.0
26641;DHT22;14269;47.358;0.724;2023-08-06T16:41:35;23.0;42.0
26641;DHT22;14269;47.358;0.724;2023-08-06T16:44:15;23.0;42.0